Snow/Ice From: 16-12-2017 16:00 Until: 17-12-2017 16:00 warning for: Snow/Ice Level: Yellow info button

Although rather usual in this region, locally or potentially dangerous phenomena are expected. (such as local winds, summer thunderstorms, rising streams or high waves) Be aware and pay attention to the latest weather updates, especially if you carry out activities exposed to weather or close to a stream or shoreline. 


Meteo18 Weather Cam more information Meteo18 Weather Cam


Thunder radar more information blitzortung!


warning for Snow/Ice more information rain snow radar


Visit our other weather sites:

Template documentation
and downloads

And another site



Weather Underground History page Text

Daily Summary for April 28, 2017 Units:  Both    English   Metric
« Previous Day
Next Day »
Daily Weekly Monthly Yearly Custom
  High: Low: Average:
Temperature: 54.3 °F /  12.4 °C 34.5 °F /  1.4 °C 44.4 °F /  6.9 °C
Dew Point: 41.5 °F /  5.3 °C 29.3 °F /  -1.5 °C 35.2 °F /  1.8 °C
Humidity: 90 % 56 % 71 %
Wind Speed: 10 mph /  16.1 km/h - 1.9 mph /  3 km/h
Wind Gust: 13 mph /  20.9 km/h - -
Wind:- - West
Pressure: 30.1 in /  1019.5 hPa 30.1 in /  1017.8 hPa -
Precipitation: 0 in /  0.0 mm    
Historical Graphs
 
 
Tabular Data for April 28, 2017
Time Temperature Dew Point Pressure Wind Wind Speed Wind Gust Humidity Rainfall Rate (Hourly)
00:02 39.6 °F /  4.2 °C 32.5 °F /  0.3 °C 30.1 in /  1018.5 hPa WNW 6 mph /  9.7 km/h 7 mph /  11.3 km/h 76 % 0 in /  0.0 mm
00:12 39.4 °F /  4.1 °C 32.5 °F /  0.3 °C 30.1 in /  1018.5 hPa WNW 2 mph /  3.2 km/h 8 mph /  12.9 km/h 76 % 0 in /  0.0 mm
00:17 39.2 °F /  4.0 °C 32.4 °F /  0.2 °C 30.1 in /  1018.8 hPa WNW 4 mph /  6.4 km/h 8 mph /  12.9 km/h 76 % 0 in /  0.0 mm
00:22 39 °F /  3.9 °C 32.4 °F /  0.2 °C 30.1 in /  1018.8 hPa WNW 5 mph /  8.0 km/h 8 mph /  12.9 km/h 77 % 0 in /  0.0 mm
00:32 39 °F /  3.9 °C 32.2 °F /  0.1 °C 30.1 in /  1018.5 hPa WNW 2 mph /  3.2 km/h 8 mph /  12.9 km/h 76 % 0 in /  0.0 mm
00:42 38.8 °F /  3.8 °C 32.2 °F /  0.1 °C 30.1 in /  1018.5 hPa North 2 mph /  3.2 km/h 8 mph /  12.9 km/h 77 % 0 in /  0.0 mm
00:52 38.8 °F /  3.8 °C 32.2 °F /  0.1 °C 30.1 in /  1018.5 hPa NW 3 mph /  4.8 km/h 8 mph /  12.9 km/h 77 % 0 in /  0.0 mm
00:57 38.7 °F /  3.7 °C 32 °F /  0.0 °C 30.1 in /  1018.8 hPa West 1 mph /  1.6 km/h 7 mph /  11.3 km/h 77 % 0 in /  0.0 mm
01:02 38.7 °F /  3.7 °C 32 °F /  0.0 °C 30.1 in /  1018.8 hPa WNW 3 mph /  4.8 km/h 7 mph /  11.3 km/h 77 % 0 in /  0.0 mm
01:12 38.5 °F /  3.6 °C 31.8 °F /  -0.1 °C 30.1 in /  1018.8 hPa NW 3 mph /  4.8 km/h 7 mph /  11.3 km/h 77 % 0 in /  0.0 mm
01:17 38.5 °F /  3.6 °C 31.8 °F /  -0.1 °C 30.1 in /  1018.8 hPa NNW 3 mph /  4.8 km/h 5 mph /  8.0 km/h 77 % 0 in /  0.0 mm
01:22 38.5 °F /  3.6 °C 31.8 °F /  -0.1 °C 30.1 in /  1018.8 hPa NNW 3 mph /  4.8 km/h 6 mph /  9.7 km/h 77 % 0 in /  0.0 mm
01:32 37.9 °F /  3.3 °C 31.5 °F /  -0.3 °C 30.1 in /  1018.8 hPa WNW 2 mph /  3.2 km/h 6 mph /  9.7 km/h 77 % 0 in /  0.0 mm
01:42 37.4 °F /  3.0 °C 31.5 °F /  -0.3 °C 30.1 in /  1018.8 hPa Calm   5 mph /  8.0 km/h 79 % 0 in /  0.0 mm
01:47 37.6 °F /  3.1 °C 31.3 °F /  -0.4 °C 30.1 in /  1018.8 hPa Calm   3 mph /  4.8 km/h 78 % 0 in /  0.0 mm
01:52 37.6 °F /  3.1 °C 31.3 °F /  -0.4 °C 30.1 in /  1018.5 hPa WNW 1 mph /  1.6 km/h 3 mph /  4.8 km/h 78 % 0 in /  0.0 mm
01:57 37.8 °F /  3.2 °C 31.5 °F /  -0.3 °C 30.1 in /  1018.5 hPa NW 2 mph /  3.2 km/h 2 mph /  3.2 km/h 78 % 0 in /  0.0 mm
02:02 37.9 °F /  3.3 °C 31.6 °F /  -0.2 °C 30.1 in /  1018.5 hPa NNW 2 mph /  3.2 km/h 3 mph /  4.8 km/h 78 % 0 in /  0.0 mm
02:07 38.1 °F /  3.4 °C 31.6 °F /  -0.2 °C 30.1 in /  1018.5 hPa NW 3 mph /  4.8 km/h 4 mph /  6.4 km/h 77 % 0 in /  0.0 mm
02:12 38.5 °F /  3.6 °C 31.8 °F /  -0.1 °C 30.1 in /  1018.5 hPa WNW 1 mph /  1.6 km/h 4 mph /  6.4 km/h 77 % 0 in /  0.0 mm
02:17 38.7 °F /  3.7 °C 32 °F /  0.0 °C 30.1 in /  1018.5 hPa NW 2 mph /  3.2 km/h 6 mph /  9.7 km/h 77 % 0 in /  0.0 mm
02:22 38.8 °F /  3.8 °C 32 °F /  0.0 °C 30.1 in /  1018.5 hPa NNW 1 mph /  1.6 km/h 6 mph /  9.7 km/h 76 % 0 in /  0.0 mm
02:32 38.7 °F /  3.7 °C 31.8 °F /  -0.1 °C 30.1 in /  1018.5 hPa NW 3 mph /  4.8 km/h 6 mph /  9.7 km/h 76 % 0 in /  0.0 mm
02:42 38.5 °F /  3.6 °C 31.6 °F /  -0.2 °C 30.1 in /  1018.5 hPa WNW 4 mph /  6.4 km/h 5 mph /  8.0 km/h 76 % 0 in /  0.0 mm
02:52 38.1 °F /  3.4 °C 31.3 °F /  -0.4 °C 30.1 in /  1018.5 hPa NNW 3 mph /  4.8 km/h 7 mph /  11.3 km/h 76 % 0 in /  0.0 mm
02:57 38.1 °F /  3.4 °C 31.3 °F /  -0.4 °C 30.1 in /  1018.5 hPa North 2 mph /  3.2 km/h 5 mph /  8.0 km/h 76 % 0 in /  0.0 mm
03:02 37.8 °F /  3.2 °C 31.3 °F /  -0.4 °C 30.1 in /  1018.5 hPa NNW 1 mph /  1.6 km/h 5 mph /  8.0 km/h 77 % 0 in /  0.0 mm
03:12 37.8 °F /  3.2 °C 31.3 °F /  -0.4 °C 30.1 in /  1018.5 hPa WNW 1 mph /  1.6 km/h 5 mph /  8.0 km/h 77 % 0 in /  0.0 mm
03:17 37.9 °F /  3.3 °C 31.5 °F /  -0.3 °C 30.1 in /  1018.5 hPa NNW 1 mph /  1.6 km/h 5 mph /  8.0 km/h 77 % 0 in /  0.0 mm
03:22 37.9 °F /  3.3 °C 31.5 °F /  -0.3 °C 30.1 in /  1018.5 hPa WNW 1 mph /  1.6 km/h 5 mph /  8.0 km/h 77 % 0 in /  0.0 mm
03:27 37.8 °F /  3.2 °C 31.3 °F /  -0.4 °C 30.1 in /  1018.5 hPa North 2 mph /  3.2 km/h 5 mph /  8.0 km/h 77 % 0 in /  0.0 mm
03:32 37.6 °F /  3.1 °C 31.1 °F /  -0.5 °C 30.1 in /  1018.5 hPa NNW 2 mph /  3.2 km/h 3 mph /  4.8 km/h 77 % 0 in /  0.0 mm
03:42 37.2 °F /  2.9 °C 30.7 °F /  -0.7 °C 30.1 in /  1018.5 hPa NNW 3 mph /  4.8 km/h 4 mph /  6.4 km/h 77 % 0 in /  0.0 mm
03:47 37 °F /  2.8 °C 30.7 °F /  -0.7 °C 30.1 in /  1018.5 hPa NNW 2 mph /  3.2 km/h 6 mph /  9.7 km/h 78 % 0 in /  0.0 mm
03:52 37 °F /  2.8 °C 30.7 °F /  -0.7 °C 30.1 in /  1018.5 hPa NNW 1 mph /  1.6 km/h 6 mph /  9.7 km/h 78 % 0 in /  0.0 mm
03:57 37 °F /  2.8 °C 30.7 °F /  -0.7 °C 30.1 in /  1018.5 hPa NNW 2 mph /  3.2 km/h 6 mph /  9.7 km/h 78 % 0 in /  0.0 mm
04:02 37 °F /  2.8 °C 30.7 °F /  -0.7 °C 30.1 in /  1018.5 hPa NNW 1 mph /  1.6 km/h 4 mph /  6.4 km/h 78 % 0 in /  0.0 mm
04:12 36.9 °F /  2.7 °C 30.6 °F /  -0.8 °C 30.1 in /  1018.5 hPa North 1 mph /  1.6 km/h 4 mph /  6.4 km/h 78 % 0 in /  0.0 mm
04:17 36.9 °F /  2.7 °C 30.6 °F /  -0.8 °C 30.1 in /  1018.5 hPa Calm   6 mph /  9.7 km/h 78 % 0 in /  0.0 mm
04:22 36.7 °F /  2.6 °C 30.6 °F /  -0.8 °C 30.1 in /  1018.2 hPa NNW 2 mph /  3.2 km/h 6 mph /  9.7 km/h 78 % 0 in /  0.0 mm
04:27 36.7 °F /  2.6 °C 30.6 °F /  -0.8 °C 30.1 in /  1018.2 hPa NNW 2 mph /  3.2 km/h 6 mph /  9.7 km/h 78 % 0 in /  0.0 mm
04:32 36.7 °F /  2.6 °C 30.6 °F /  -0.8 °C 30.1 in /  1018.2 hPa NW 2 mph /  3.2 km/h 5 mph /  8.0 km/h 78 % 0 in /  0.0 mm
04:42 36.1 °F /  2.3 °C 30.2 °F /  -1.0 °C 30.1 in /  1018.2 hPa NW 3 mph /  4.8 km/h 5 mph /  8.0 km/h 79 % 0 in /  0.0 mm
04:47 36 °F /  2.2 °C 30 °F /  -1.1 °C 30.1 in /  1018.5 hPa Calm   5 mph /  8.0 km/h 79 % 0 in /  0.0 mm
04:52 36 °F /  2.2 °C 30 °F /  -1.1 °C 30.1 in /  1018.2 hPa North 2 mph /  3.2 km/h 5 mph /  8.0 km/h 79 % 0 in /  0.0 mm
04:57 36 °F /  2.2 °C 30 °F /  -1.1 °C 30.1 in /  1018.2 hPa NNW 2 mph /  3.2 km/h 4 mph /  6.4 km/h 79 % 0 in /  0.0 mm
05:02 36 °F /  2.2 °C 30 °F /  -1.1 °C 30.1 in /  1018.2 hPa NNW 3 mph /  4.8 km/h 4 mph /  6.4 km/h 79 % 0 in /  0.0 mm
05:12 36 °F /  2.2 °C 30 °F /  -1.1 °C 30.1 in /  1018.2 hPa Calm   5 mph /  8.0 km/h 79 % 0 in /  0.0 mm
05:17 35.8 °F /  2.1 °C 29.8 °F /  -1.2 °C 30.1 in /  1018.2 hPa North 2 mph /  3.2 km/h 5 mph /  8.0 km/h 79 % 0 in /  0.0 mm
05:22 35.8 °F /  2.1 °C 30.2 °F /  -1.0 °C 30.1 in /  1018.2 hPa Calm   5 mph /  8.0 km/h 80 % 0 in /  0.0 mm
05:32 35.8 °F /  2.1 °C 29.8 °F /  -1.2 °C 30.1 in /  1018.2 hPa NNW 2 mph /  3.2 km/h 3 mph /  4.8 km/h 79 % 0 in /  0.0 mm
05:42 36 °F /  2.2 °C 30 °F /  -1.1 °C 30.1 in /  1018.2 hPa NNW 2 mph /  3.2 km/h 4 mph /  6.4 km/h 79 % 0 in /  0.0 mm
05:52 35.8 °F /  2.1 °C 29.8 °F /  -1.2 °C 30.1 in /  1017.8 hPa NNW 3 mph /  4.8 km/h 5 mph /  8.0 km/h 79 % 0 in /  0.0 mm
06:02 35.8 °F /  2.1 °C 29.8 °F /  -1.2 °C 30.1 in /  1017.8 hPa NNE 2 mph /  3.2 km/h 5 mph /  8.0 km/h 79 % 0 in /  0.0 mm
06:12 35.8 °F /  2.1 °C 29.8 °F /  -1.2 °C 30.1 in /  1017.8 hPa Calm   5 mph /  8.0 km/h 79 % 0 in /  0.0 mm
06:17 35.8 °F /  2.1 °C 29.8 °F /  -1.2 °C 30.1 in /  1017.8 hPa NW 1 mph /  1.6 km/h 5 mph /  8.0 km/h 79 % 0 in /  0.0 mm
06:22 36 °F /  2.2 °C 29.8 °F /  -1.2 °C 30.1 in /  1017.8 hPa Calm   5 mph /  8.0 km/h 78 % 0 in /  0.0 mm
06:32 36 °F /  2.2 °C 29.8 °F /  -1.2 °C 30.1 in /  1017.8 hPa NW 1 mph /  1.6 km/h 6 mph /  9.7 km/h 78 % 0 in /  0.0 mm
06:37 36 °F /  2.2 °C 29.8 °F /  -1.2 °C 30.1 in /  1017.8 hPa NW 1 mph /  1.6 km/h 6 mph /  9.7 km/h 78 % 0 in /  0.0 mm
06:42 35.8 °F /  2.1 °C 29.7 °F /  -1.3 °C 30.1 in /  1017.8 hPa WNW 1 mph /  1.6 km/h 6 mph /  9.7 km/h 78 % 0 in /  0.0 mm
06:47 35.4 °F /  1.9 °C 29.5 °F /  -1.4 °C 30.1 in /  1018.2 hPa Calm   6 mph /  9.7 km/h 79 % 0 in /  0.0 mm
06:52 35.2 °F /  1.8 °C 29.3 °F /  -1.5 °C 30.1 in /  1018.2 hPa Calm   6 mph /  9.7 km/h 79 % 0 in /  0.0 mm
06:57 35.2 °F /  1.8 °C 29.3 °F /  -1.5 °C 30.1 in /  1018.2 hPa WNW 1 mph /  1.6 km/h 4 mph /  6.4 km/h 79 % 0 in /  0.0 mm
07:02 35.2 °F /  1.8 °C 29.3 °F /  -1.5 °C 30.1 in /  1018.2 hPa Calm   4 mph /  6.4 km/h 79 % 0 in /  0.0 mm
07:12 35.1 °F /  1.7 °C 29.5 °F /  -1.4 °C 30.1 in /  1018.2 hPa Calm   4 mph /  6.4 km/h 80 % 0 in /  0.0 mm
07:17 34.9 °F /  1.6 °C 29.3 °F /  -1.5 °C 30.1 in /  1018.5 hPa Calm   4 mph /  6.4 km/h 80 % 0 in /  0.0 mm
07:22 34.9 °F /  1.6 °C 29.7 °F /  -1.3 °C 30.1 in /  1018.5 hPa Calm   3 mph /  4.8 km/h 81 % 0 in /  0.0 mm
07:32 34.5 °F /  1.4 °C 29.3 °F /  -1.5 °C 30.1 in /  1018.5 hPa Calm   1 mph /  1.6 km/h 81 % 0 in /  0.0 mm
07:42 34.5 °F /  1.4 °C 29.7 °F /  -1.3 °C 30.1 in /  1018.5 hPa Calm   2 mph /  3.2 km/h 82 % 0 in /  0.0 mm
07:52 35.1 °F /  1.7 °C 29.8 °F /  -1.2 °C 30.1 in /  1018.8 hPa Calm     81 % 0 in /  0.0 mm
07:57 35.2 °F /  1.8 °C 30.4 °F /  -0.9 °C 30.1 in /  1018.8 hPa Calm     82 % 0 in /  0.0 mm
08:02 36.1 °F /  2.3 °C 31.1 °F /  -0.5 °C 30.1 in /  1018.8 hPa Calm   1 mph /  1.6 km/h 82 % 0 in /  0.0 mm
08:12 37.8 °F /  3.2 °C 31.5 °F /  -0.3 °C 30.1 in /  1018.5 hPa Calm   1 mph /  1.6 km/h 78 % 0 in /  0.0 mm
08:17 37.8 °F /  3.2 °C 31.5 °F /  -0.3 °C 30.1 in /  1018.8 hPa Calm   1 mph /  1.6 km/h 78 % 0 in /  0.0 mm
08:22 38.5 °F /  3.6 °C 32.2 °F /  0.1 °C 30.1 in /  1018.8 hPa Calm     78 % 0 in /  0.0 mm
08:32 40.8 °F /  4.9 °C 32.9 °F /  0.5 °C 30.1 in /  1018.8 hPa Calm     73 % 0 in /  0.0 mm
08:42 41.5 °F /  5.3 °C 33.8 °F /  1.0 °C 30.1 in /  1018.8 hPa Calm     74 % 0 in /  0.0 mm
08:47 43.2 °F /  6.2 °C 35.4 °F /  1.9 °C 30.1 in /  1018.8 hPa Calm     74 % 0 in /  0.0 mm
08:57 46 °F /  7.8 °C 34.5 °F /  1.4 °C 30.1 in /  1018.8 hPa Calm     64 % 0 in /  0.0 mm
09:02 45 °F /  7.2 °C 34 °F /  1.1 °C 30.1 in /  1018.8 hPa Calm     65 % 0 in /  0.0 mm
09:12 44.6 °F /  7.0 °C 33.6 °F /  0.9 °C 30.1 in /  1018.8 hPa West 1 mph /  1.6 km/h 5 mph /  8.0 km/h 65 % 0 in /  0.0 mm
09:17 44.4 °F /  6.9 °C 33.8 °F /  1.0 °C 30.1 in /  1018.8 hPa WNW 2 mph /  3.2 km/h 5 mph /  8.0 km/h 66 % 0 in /  0.0 mm
09:22 44.2 °F /  6.8 °C 33.6 °F /  0.9 °C 30.1 in /  1018.8 hPa WNW 3 mph /  4.8 km/h 5 mph /  8.0 km/h 66 % 0 in /  0.0 mm
09:27 44.1 °F /  6.7 °C 34.2 °F /  1.2 °C 30.1 in /  1018.8 hPa WNW 4 mph /  6.4 km/h 5 mph /  8.0 km/h 68 % 0 in /  0.0 mm
09:32 44.1 °F /  6.7 °C 34.5 °F /  1.4 °C 30.1 in /  1018.8 hPa NW 1 mph /  1.6 km/h 5 mph /  8.0 km/h 69 % 0 in /  0.0 mm
09:42 44.6 °F /  7.0 °C 34.7 °F /  1.5 °C 30.1 in /  1018.8 hPa Calm   5 mph /  8.0 km/h 68 % 0 in /  0.0 mm
09:47 44.8 °F /  7.1 °C 34.5 °F /  1.4 °C 30.1 in /  1018.8 hPa NW 2 mph /  3.2 km/h 5 mph /  8.0 km/h 67 % 0 in /  0.0 mm
09:52 44.8 °F /  7.1 °C 34.9 °F /  1.6 °C 30.1 in /  1018.8 hPa West 3 mph /  4.8 km/h 3 mph /  4.8 km/h 68 % 0 in /  0.0 mm
10:02 44.4 °F /  6.9 °C 34.2 °F /  1.2 °C 30.1 in /  1018.8 hPa Calm   4 mph /  6.4 km/h 67 % 0 in /  0.0 mm
10:12 45 °F /  7.2 °C 34.7 °F /  1.5 °C 30.1 in /  1018.8 hPa WNW 2 mph /  3.2 km/h 3 mph /  4.8 km/h 67 % 0 in /  0.0 mm
10:17 45.1 °F /  7.3 °C 35.2 °F /  1.8 °C 30.1 in /  1018.8 hPa Calm   3 mph /  4.8 km/h 68 % 0 in /  0.0 mm
10:22 45.1 °F /  7.3 °C 34.9 °F /  1.6 °C 30.1 in /  1018.8 hPa SW 2 mph /  3.2 km/h 4 mph /  6.4 km/h 67 % 0 in /  0.0 mm
10:32 45.3 °F /  7.4 °C 35.4 °F /  1.9 °C 30.1 in /  1018.8 hPa WSW 2 mph /  3.2 km/h 4 mph /  6.4 km/h 68 % 0 in /  0.0 mm
10:37 45.3 °F /  7.4 °C 35.4 °F /  1.9 °C 30.1 in /  1018.8 hPa WSW 1 mph /  1.6 km/h 4 mph /  6.4 km/h 68 % 0 in /  0.0 mm
10:42 45.9 °F /  7.7 °C 36 °F /  2.2 °C 30.1 in /  1018.8 hPa West 1 mph /  1.6 km/h 4 mph /  6.4 km/h 68 % 0 in /  0.0 mm
10:47 46.2 °F /  7.9 °C 35.1 °F /  1.7 °C 30.1 in /  1018.8 hPa West 3 mph /  4.8 km/h 4 mph /  6.4 km/h 65 % 0 in /  0.0 mm
10:57 46.8 °F /  8.2 °C 34.5 °F /  1.4 °C 30.1 in /  1018.8 hPa West 5 mph /  8.0 km/h 8 mph /  12.9 km/h 62 % 0 in /  0.0 mm
11:02 46.9 °F /  8.3 °C 35.4 °F /  1.9 °C 30.1 in /  1018.8 hPa WSW 1 mph /  1.6 km/h 10 mph /  16.1 km/h 64 % 0 in /  0.0 mm
11:12 47.1 °F /  8.4 °C 35.2 °F /  1.8 °C 30.1 in /  1018.8 hPa West 6 mph /  9.7 km/h 10 mph /  16.1 km/h 63 % 0 in /  0.0 mm
11:17 47.1 °F /  8.4 °C 34 °F /  1.1 °C 30.1 in /  1018.8 hPa WSW 9 mph /  14.5 km/h 10 mph /  16.1 km/h 60 % 0 in /  0.0 mm
11:22 47.1 °F /  8.4 °C 34 °F /  1.1 °C 30.1 in /  1018.8 hPa SW 5 mph /  8.0 km/h 11 mph /  17.7 km/h 60 % 0 in /  0.0 mm
11:27 47.3 °F /  8.5 °C 34.2 °F /  1.2 °C 30.1 in /  1018.8 hPa West 10 mph /  16.1 km/h 11 mph /  17.7 km/h 60 % 0 in /  0.0 mm
11:32 47.3 °F /  8.5 °C 33.6 °F /  0.9 °C 30.1 in /  1018.8 hPa WNW 4 mph /  6.4 km/h 13 mph /  20.9 km/h 59 % 0 in /  0.0 mm
11:42 47.5 °F /  8.6 °C 34.3 °F /  1.3 °C 30.1 in /  1018.8 hPa WSW 3 mph /  4.8 km/h 13 mph /  20.9 km/h 60 % 0 in /  0.0 mm
11:47 47.5 °F /  8.6 °C 33.8 °F /  1.0 °C 30.1 in /  1019.2 hPa WSW 4 mph /  6.4 km/h 13 mph /  20.9 km/h 59 % 0 in /  0.0 mm
11:52 47.5 °F /  8.6 °C 33.8 °F /  1.0 °C 30.1 in /  1019.2 hPa West 5 mph /  8.0 km/h 10 mph /  16.1 km/h 59 % 0 in /  0.0 mm
11:57 47.5 °F /  8.6 °C 33.4 °F /  0.8 °C 30.1 in /  1019.2 hPa West 3 mph /  4.8 km/h 10 mph /  16.1 km/h 58 % 0 in /  0.0 mm
12:02 47.5 °F /  8.6 °C 33.4 °F /  0.8 °C 30.1 in /  1018.8 hPa WNW 5 mph /  8.0 km/h 10 mph /  16.1 km/h 58 % 0 in /  0.0 mm
12:12 47.8 °F /  8.8 °C 34.2 °F /  1.2 °C 30.1 in /  1018.8 hPa SSE 1 mph /  1.6 km/h 8 mph /  12.9 km/h 59 % 0 in /  0.0 mm
12:17 48 °F /  8.9 °C 34 °F /  1.1 °C 30.1 in /  1018.8 hPa WSW 6 mph /  9.7 km/h 8 mph /  12.9 km/h 58 % 0 in /  0.0 mm
12:22 48.4 °F /  9.1 °C 34.7 °F /  1.5 °C 30.1 in /  1018.8 hPa SW 1 mph /  1.6 km/h 8 mph /  12.9 km/h 59 % 0 in /  0.0 mm
12:32 48.7 °F /  9.3 °C 35.1 °F /  1.7 °C 30.1 in /  1018.8 hPa WNW 4 mph /  6.4 km/h 8 mph /  12.9 km/h 59 % 0 in /  0.0 mm
12:42 49.5 °F /  9.7 °C 35.8 °F /  2.1 °C 30.1 in /  1018.8 hPa West 7 mph /  11.3 km/h 7 mph /  11.3 km/h 59 % 0 in /  0.0 mm
12:47 49.5 °F /  9.7 °C 34.9 °F /  1.6 °C 30.1 in /  1018.8 hPa West 4 mph /  6.4 km/h 6 mph /  9.7 km/h 57 % 0 in /  0.0 mm
12:52 49.6 °F /  9.8 °C 35.1 °F /  1.7 °C 30.1 in /  1018.8 hPa West 5 mph /  8.0 km/h 8 mph /  12.9 km/h 57 % 0 in /  0.0 mm
13:02 49.1 °F /  9.5 °C 34.2 °F /  1.2 °C 30.1 in /  1018.8 hPa West 3 mph /  4.8 km/h 8 mph /  12.9 km/h 56 % 0 in /  0.0 mm
13:12 48.9 °F /  9.4 °C 34.9 °F /  1.6 °C 30.1 in /  1018.8 hPa West 4 mph /  6.4 km/h 7 mph /  11.3 km/h 58 % 0 in /  0.0 mm
13:17 48.9 °F /  9.4 °C 34 °F /  1.1 °C 30.1 in /  1018.8 hPa WSW 2 mph /  3.2 km/h 7 mph /  11.3 km/h 56 % 0 in /  0.0 mm
13:22 49.3 °F /  9.6 °C 34.7 °F /  1.5 °C 30.1 in /  1018.8 hPa West 1 mph /  1.6 km/h 7 mph /  11.3 km/h 57 % 0 in /  0.0 mm
13:32 49.8 °F /  9.9 °C 35.2 °F /  1.8 °C 30.1 in /  1018.8 hPa WSW 4 mph /  6.4 km/h 7 mph /  11.3 km/h 57 % 0 in /  0.0 mm
13:42 49.8 °F /  9.9 °C 35.6 °F /  2.0 °C 30.1 in /  1018.8 hPa NW 3 mph /  4.8 km/h 8 mph /  12.9 km/h 58 % 0 in /  0.0 mm
13:47 49.8 °F /  9.9 °C 35.2 °F /  1.8 °C 30.1 in /  1018.8 hPa WNW 5 mph /  8.0 km/h 8 mph /  12.9 km/h 57 % 0 in /  0.0 mm
13:57 49.5 °F /  9.7 °C 35.2 °F /  1.8 °C 30.1 in /  1018.8 hPa WNW 2 mph /  3.2 km/h 8 mph /  12.9 km/h 58 % 0 in /  0.0 mm
14:02 49.5 °F /  9.7 °C 35.8 °F /  2.1 °C 30.1 in /  1018.8 hPa West 5 mph /  8.0 km/h 7 mph /  11.3 km/h 59 % 0 in /  0.0 mm
14:12 49.6 °F /  9.8 °C 36.3 °F /  2.4 °C 30.1 in /  1018.8 hPa WNW 5 mph /  8.0 km/h 8 mph /  12.9 km/h 60 % 0 in /  0.0 mm
14:17 49.6 °F /  9.8 °C 36.3 °F /  2.4 °C 30.1 in /  1018.8 hPa West 1 mph /  1.6 km/h 8 mph /  12.9 km/h 60 % 0 in /  0.0 mm
14:22 49.8 °F /  9.9 °C 36.5 °F /  2.5 °C 30.1 in /  1018.8 hPa WNW 5 mph /  8.0 km/h 9 mph /  14.5 km/h 60 % 0 in /  0.0 mm
14:27 50.2 °F /  10.1 °C 36.9 °F /  2.7 °C 30.1 in /  1018.8 hPa WNW 1 mph /  1.6 km/h 9 mph /  14.5 km/h 60 % 0 in /  0.0 mm
14:32 50.5 °F /  10.3 °C 36.7 °F /  2.6 °C 30.1 in /  1018.8 hPa NW 1 mph /  1.6 km/h 8 mph /  12.9 km/h 59 % 0 in /  0.0 mm
14:42 50.4 °F /  10.2 °C 37 °F /  2.8 °C 30.1 in /  1018.8 hPa West 4 mph /  6.4 km/h 8 mph /  12.9 km/h 60 % 0 in /  0.0 mm
14:47 50.2 °F /  10.1 °C 36.3 °F /  2.4 °C 30.1 in /  1018.8 hPa SSW 2 mph /  3.2 km/h 10 mph /  16.1 km/h 59 % 0 in /  0.0 mm
14:52 50.4 °F /  10.2 °C 37.4 °F /  3.0 °C 30.1 in /  1018.8 hPa Calm   10 mph /  16.1 km/h 61 % 0 in /  0.0 mm
14:57 50.5 °F /  10.3 °C 37.2 °F /  2.9 °C 30.1 in /  1018.8 hPa NW 3 mph /  4.8 km/h 6 mph /  9.7 km/h 60 % 0 in /  0.0 mm
15:02 50.4 °F /  10.2 °C 37 °F /  2.8 °C 30.1 in /  1018.8 hPa WNW 3 mph /  4.8 km/h 6 mph /  9.7 km/h 60 % 0 in /  0.0 mm
15:12 50.2 °F /  10.1 °C 37.2 °F /  2.9 °C 30.1 in /  1018.8 hPa WSW 4 mph /  6.4 km/h 6 mph /  9.7 km/h 61 % 0 in /  0.0 mm
15:17 50.2 °F /  10.1 °C 37.6 °F /  3.1 °C 30.1 in /  1018.8 hPa West 3 mph /  4.8 km/h 6 mph /  9.7 km/h 62 % 0 in /  0.0 mm
15:22 50 °F /  10.0 °C 37.6 °F /  3.1 °C 30.1 in /  1018.8 hPa WNW 6 mph /  9.7 km/h 7 mph /  11.3 km/h 62 % 0 in /  0.0 mm
15:27 50 °F /  10.0 °C 38.3 °F /  3.5 °C 30.1 in /  1018.8 hPa WNW 2 mph /  3.2 km/h 8 mph /  12.9 km/h 64 % 0 in /  0.0 mm
15:32 50.5 °F /  10.3 °C 38.8 °F /  3.8 °C 30.1 in /  1018.8 hPa WSW 3 mph /  4.8 km/h 8 mph /  12.9 km/h 64 % 0 in /  0.0 mm
15:42 50.9 °F /  10.5 °C 38.8 °F /  3.8 °C 30.1 in /  1018.8 hPa West 5 mph /  8.0 km/h 8 mph /  12.9 km/h 63 % 0 in /  0.0 mm
15:47 51.4 °F /  10.8 °C 38.5 °F /  3.6 °C 30.1 in /  1018.5 hPa WNW 2 mph /  3.2 km/h 9 mph /  14.5 km/h 61 % 0 in /  0.0 mm
15:52 51.8 °F /  11.0 °C 38.3 °F /  3.5 °C 30.1 in /  1018.5 hPa West 6 mph /  9.7 km/h 9 mph /  14.5 km/h 60 % 0 in /  0.0 mm
15:57 51.8 °F /  11.0 °C 38.3 °F /  3.5 °C 30.1 in /  1018.5 hPa West 1 mph /  1.6 km/h 10 mph /  16.1 km/h 60 % 0 in /  0.0 mm
16:02 52 °F /  11.1 °C 38.5 °F /  3.6 °C 30.1 in /  1018.5 hPa SW 5 mph /  8.0 km/h 10 mph /  16.1 km/h 60 % 0 in /  0.0 mm
16:12 52.2 °F /  11.2 °C 38.7 °F /  3.7 °C 30.1 in /  1018.5 hPa West 3 mph /  4.8 km/h 10 mph /  16.1 km/h 60 % 0 in /  0.0 mm
16:22 52.3 °F /  11.3 °C 39.4 °F /  4.1 °C 30.1 in /  1018.2 hPa West 5 mph /  8.0 km/h 10 mph /  16.1 km/h 61 % 0 in /  0.0 mm
16:32 52.5 °F /  11.4 °C 38.7 °F /  3.7 °C 30.1 in /  1018.2 hPa West 4 mph /  6.4 km/h 9 mph /  14.5 km/h 59 % 0 in /  0.0 mm
16:47 54 °F /  12.2 °C 39.6 °F /  4.2 °C 30.1 in /  1018.2 hPa West 3 mph /  4.8 km/h 9 mph /  14.5 km/h 58 % 0 in /  0.0 mm
16:52 54.1 °F /  12.3 °C 39.2 °F /  4.0 °C 30.1 in /  1018.2 hPa West 2 mph /  3.2 km/h 9 mph /  14.5 km/h 57 % 0 in /  0.0 mm
16:57 53.8 °F /  12.1 °C 38.8 °F /  3.8 °C 30.1 in /  1018.2 hPa SW 2 mph /  3.2 km/h 9 mph /  14.5 km/h 57 % 0 in /  0.0 mm
17:02 53.6 °F /  12.0 °C 38.7 °F /  3.7 °C 30.1 in /  1018.2 hPa SSW 4 mph /  6.4 km/h 9 mph /  14.5 km/h 57 % 0 in /  0.0 mm
17:07 53.4 °F /  11.9 °C 38.1 °F /  3.4 °C 30.1 in /  1018.2 hPa SSW 1 mph /  1.6 km/h 9 mph /  14.5 km/h 56 % 0 in /  0.0 mm
17:12 53.4 °F /  11.9 °C 38.5 °F /  3.6 °C 30.1 in /  1018.2 hPa West 2 mph /  3.2 km/h 9 mph /  14.5 km/h 57 % 0 in /  0.0 mm
17:17 53.4 °F /  11.9 °C 39 °F /  3.9 °C 30.1 in /  1018.2 hPa SW 1 mph /  1.6 km/h 9 mph /  14.5 km/h 58 % 0 in /  0.0 mm
17:22 53.4 °F /  11.9 °C 39.4 °F /  4.1 °C 30.1 in /  1018.2 hPa WSW 4 mph /  6.4 km/h 9 mph /  14.5 km/h 59 % 0 in /  0.0 mm
17:27 53.2 °F /  11.8 °C 39.7 °F /  4.3 °C 30.1 in /  1018.2 hPa WSW 1 mph /  1.6 km/h 9 mph /  14.5 km/h 60 % 0 in /  0.0 mm
17:32 52.9 °F /  11.6 °C 39.4 °F /  4.1 °C 30.1 in /  1018.2 hPa SSW 2 mph /  3.2 km/h 9 mph /  14.5 km/h 60 % 0 in /  0.0 mm
17:37 53.1 °F /  11.7 °C 39.9 °F /  4.4 °C 30.1 in /  1018.2 hPa WSW 4 mph /  6.4 km/h 9 mph /  14.5 km/h 61 % 0 in /  0.0 mm
17:42 52.9 °F /  11.6 °C 39.7 °F /  4.3 °C 30.1 in /  1018.2 hPa SW 1 mph /  1.6 km/h 9 mph /  14.5 km/h 61 % 0 in /  0.0 mm
17:47 53.1 °F /  11.7 °C 39.2 °F /  4.0 °C 30.1 in /  1018.2 hPa SSE 5 mph /  8.0 km/h 9 mph /  14.5 km/h 59 % 0 in /  0.0 mm
17:52 52.9 °F /  11.6 °C 39.4 °F /  4.1 °C 30.1 in /  1018.2 hPa SW 4 mph /  6.4 km/h 7 mph /  11.3 km/h 60 % 0 in /  0.0 mm
17:57 52.7 °F /  11.5 °C 39.2 °F /  4.0 °C 30.1 in /  1018.2 hPa SW 2 mph /  3.2 km/h 7 mph /  11.3 km/h 60 % 0 in /  0.0 mm
18:02 52.5 °F /  11.4 °C 38.7 °F /  3.7 °C 30.1 in /  1018.2 hPa SW 2 mph /  3.2 km/h 7 mph /  11.3 km/h 59 % 0 in /  0.0 mm
18:07 52.5 °F /  11.4 °C 39 °F /  3.9 °C 30.1 in /  1018.2 hPa SW 1 mph /  1.6 km/h 5 mph /  8.0 km/h 60 % 0 in /  0.0 mm
18:12 52.5 °F /  11.4 °C 39 °F /  3.9 °C 30.1 in /  1018.2 hPa SSW 2 mph /  3.2 km/h 5 mph /  8.0 km/h 60 % 0 in /  0.0 mm
18:17 52.3 °F /  11.3 °C 39.4 °F /  4.1 °C 30.1 in /  1018.2 hPa WSW 1 mph /  1.6 km/h 4 mph /  6.4 km/h 61 % 0 in /  0.0 mm
18:22 52.2 °F /  11.2 °C 39.2 °F /  4.0 °C 30.1 in /  1018.2 hPa WSW 2 mph /  3.2 km/h 4 mph /  6.4 km/h 61 % 0 in /  0.0 mm
18:32 52 °F /  11.1 °C 39.4 °F /  4.1 °C 30.1 in /  1018.2 hPa South 1 mph /  1.6 km/h 4 mph /  6.4 km/h 62 % 0 in /  0.0 mm
18:42 52 °F /  11.1 °C 39.7 °F /  4.3 °C 30.1 in /  1018.5 hPa SSW 4 mph /  6.4 km/h 4 mph /  6.4 km/h 63 % 0 in /  0.0 mm
18:52 52 °F /  11.1 °C 41.4 °F /  5.2 °C 30.1 in /  1018.5 hPa West 2 mph /  3.2 km/h 5 mph /  8.0 km/h 67 % 0 in /  0.0 mm
18:57 51.8 °F /  11.0 °C 41.2 °F /  5.1 °C 30.1 in /  1018.5 hPa WNW 1 mph /  1.6 km/h 5 mph /  8.0 km/h 67 % 0 in /  0.0 mm
19:02 51.8 °F /  11.0 °C 40.5 °F /  4.7 °C 30.1 in /  1018.5 hPa WNW 1 mph /  1.6 km/h 5 mph /  8.0 km/h 65 % 0 in /  0.0 mm
19:12 52 °F /  11.1 °C 41 °F /  5.0 °C 30.1 in /  1018.2 hPa Calm   3 mph /  4.8 km/h 66 % 0 in /  0.0 mm
19:17 52.2 °F /  11.2 °C 41.2 °F /  5.1 °C 30.1 in /  1018.5 hPa WNW 1 mph /  1.6 km/h 2 mph /  3.2 km/h 66 % 0 in /  0.0 mm
19:22 52.9 °F /  11.6 °C 41.4 °F /  5.2 °C 30.1 in /  1018.2 hPa Calm   2 mph /  3.2 km/h 65 % 0 in /  0.0 mm
19:32 54.3 °F /  12.4 °C 41.5 °F /  5.3 °C 30.1 in /  1018.2 hPa Calm   3 mph /  4.8 km/h 62 % 0 in /  0.0 mm
19:42 53.6 °F /  12.0 °C 40.1 °F /  4.5 °C 30.1 in /  1018.2 hPa West 1 mph /  1.6 km/h 3 mph /  4.8 km/h 60 % 0 in /  0.0 mm
19:52 53.4 °F /  11.9 °C 40.3 °F /  4.6 °C 30.1 in /  1018.2 hPa Calm   1 mph /  1.6 km/h 61 % 0 in /  0.0 mm
19:57 53.4 °F /  11.9 °C 40.3 °F /  4.6 °C 30.1 in /  1018.2 hPa SW 1 mph /  1.6 km/h 2 mph /  3.2 km/h 61 % 0 in /  0.0 mm
20:02 52.9 °F /  11.6 °C 40.6 °F /  4.8 °C 30.1 in /  1018.2 hPa WSW 1 mph /  1.6 km/h 1 mph /  1.6 km/h 63 % 0 in /  0.0 mm
20:12 52.3 °F /  11.3 °C 41 °F /  5.0 °C 30.1 in /  1018.5 hPa WSW 4 mph /  6.4 km/h 4 mph /  6.4 km/h 65 % 0 in /  0.0 mm
20:17 52 °F /  11.1 °C 41 °F /  5.0 °C 30.1 in /  1018.5 hPa WSW 3 mph /  4.8 km/h 5 mph /  8.0 km/h 66 % 0 in /  0.0 mm
20:27 51.3 °F /  10.7 °C 41 °F /  5.0 °C 30.1 in /  1018.5 hPa West 1 mph /  1.6 km/h 6 mph /  9.7 km/h 68 % 0 in /  0.0 mm
20:32 51.1 °F /  10.6 °C 40.8 °F /  4.9 °C 30.1 in /  1018.5 hPa WSW 3 mph /  4.8 km/h 6 mph /  9.7 km/h 68 % 0 in /  0.0 mm
20:42 49.8 °F /  9.9 °C 40.8 °F /  4.9 °C 30.1 in /  1018.5 hPa Calm   4 mph /  6.4 km/h 71 % 0 in /  0.0 mm
20:47 49.5 °F /  9.7 °C 40.8 °F /  4.9 °C 30.1 in /  1018.5 hPa WSW 2 mph /  3.2 km/h 4 mph /  6.4 km/h 72 % 0 in /  0.0 mm
20:57 48.6 °F /  9.2 °C 40.6 °F /  4.8 °C 30.1 in /  1018.5 hPa WSW 1 mph /  1.6 km/h 2 mph /  3.2 km/h 74 % 0 in /  0.0 mm
21:02 48.4 °F /  9.1 °C 40.8 °F /  4.9 °C 30.1 in /  1018.5 hPa Calm   2 mph /  3.2 km/h 75 % 0 in /  0.0 mm
21:12 47.5 °F /  8.6 °C 40.6 °F /  4.8 °C 30.1 in /  1018.8 hPa Calm   2 mph /  3.2 km/h 77 % 0 in /  0.0 mm
21:17 46.8 °F /  8.2 °C 40.3 °F /  4.6 °C 30.1 in /  1018.8 hPa West 1 mph /  1.6 km/h 1 mph /  1.6 km/h 78 % 0 in /  0.0 mm
21:22 46.2 °F /  7.9 °C 40.1 °F /  4.5 °C 30.1 in /  1018.8 hPa Calm   1 mph /  1.6 km/h 79 % 0 in /  0.0 mm
21:32 45.7 °F /  7.6 °C 40.1 °F /  4.5 °C 30.1 in /  1018.8 hPa Calm   1 mph /  1.6 km/h 81 % 0 in /  0.0 mm
21:37 45.3 °F /  7.4 °C 39.6 °F /  4.2 °C 30.1 in /  1018.8 hPa Calm   1 mph /  1.6 km/h 80 % 0 in /  0.0 mm
21:42 45.1 °F /  7.3 °C 39.9 °F /  4.4 °C 30.1 in /  1018.8 hPa Calm   1 mph /  1.6 km/h 82 % 0 in /  0.0 mm
21:52 44.6 °F /  7.0 °C 39.4 °F /  4.1 °C 30.1 in /  1018.8 hPa Calm   1 mph /  1.6 km/h 82 % 0 in /  0.0 mm
21:57 43.9 °F /  6.6 °C 38.7 °F /  3.7 °C 30.1 in /  1019.2 hPa Calm     82 % 0 in /  0.0 mm
22:02 43.3 °F /  6.3 °C 39.2 °F /  4.0 °C 30.1 in /  1019.2 hPa Calm   1 mph /  1.6 km/h 85 % 0 in /  0.0 mm
22:12 43.2 °F /  6.2 °C 39.2 °F /  4.0 °C 30.1 in /  1019.2 hPa Calm   1 mph /  1.6 km/h 86 % 0 in /  0.0 mm
22:17 43 °F /  6.1 °C 39 °F /  3.9 °C 30.1 in /  1019.2 hPa Calm   1 mph /  1.6 km/h 86 % 0 in /  0.0 mm
22:22 42.6 °F /  5.9 °C 39 °F /  3.9 °C 30.1 in /  1019.2 hPa Calm   1 mph /  1.6 km/h 87 % 0 in /  0.0 mm
22:27 42.6 °F /  5.9 °C 39 °F /  3.9 °C 30.1 in /  1019.2 hPa Calm     87 % 0 in /  0.0 mm
22:37 42.3 °F /  5.7 °C 39 °F /  3.9 °C 30.1 in /  1019.2 hPa Calm   1 mph /  1.6 km/h 88 % 0 in /  0.0 mm
22:42 42.1 °F /  5.6 °C 39 °F /  3.9 °C 30.1 in /  1019.2 hPa Calm   1 mph /  1.6 km/h 89 % 0 in /  0.0 mm
22:47 41.9 °F /  5.5 °C 38.7 °F /  3.7 °C 30.1 in /  1019.5 hPa Calm   1 mph /  1.6 km/h 88 % 0 in /  0.0 mm
22:52 41.7 °F /  5.4 °C 38.7 °F /  3.7 °C 30.1 in /  1019.5 hPa Calm   1 mph /  1.6 km/h 89 % 0 in /  0.0 mm
22:57 41.7 °F /  5.4 °C 38.7 °F /  3.7 °C 30.1 in /  1019.2 hPa Calm     89 % 0 in /  0.0 mm
23:02 41.7 °F /  5.4 °C 38.7 °F /  3.7 °C 30.1 in /  1019.5 hPa Calm     89 % 0 in /  0.0 mm
23:12 41.5 °F /  5.3 °C 38.5 °F /  3.6 °C 30.1 in /  1019.5 hPa Calm     89 % 0 in /  0.0 mm
23:17 41.4 °F /  5.2 °C 38.3 °F /  3.5 °C 30.1 in /  1019.5 hPa Calm     89 % 0 in /  0.0 mm
23:22 41.7 °F /  5.4 °C 39 °F /  3.9 °C 30.1 in /  1019.5 hPa Calm   1 mph /  1.6 km/h 90 % 0 in /  0.0 mm
23:32 42.1 °F /  5.6 °C 39 °F /  3.9 °C 30.1 in /  1019.5 hPa Calm   1 mph /  1.6 km/h 89 % 0 in /  0.0 mm
23:37 42.1 °F /  5.6 °C 39 °F /  3.9 °C 30.1 in /  1019.5 hPa Calm   1 mph /  1.6 km/h 89 % 0 in /  0.0 mm
23:42 42.1 °F /  5.6 °C 39.4 °F /  4.1 °C 30.1 in /  1019.5 hPa Calm   1 mph /  1.6 km/h 90 % 0 in /  0.0 mm
23:52 42.1 °F /  5.6 °C 39 °F /  3.9 °C 30.1 in /  1019.5 hPa Calm   1 mph /  1.6 km/h 89 % 0 in /  0.0 mm
23:57 42.1 °F /  5.6 °C 39 °F /  3.9 °C 30.1 in /  1019.2 hPa Calm   1 mph /  1.6 km/h 89 % 0 in /  0.0 mm
Meteo18
Compliments of Weather Underground - 4 mb

Script developed by  Jim McMurry - jmcmurry@mwt.net Adapted for the template by  Wim van der Kuil - Leuven-Template.eu

You find our weather info also at:

European Weather Network

Weather Underground

Equipment we use:

Weather-station
Davis Vue

Weather-program
Meteohub

Weather-server
Raspberry PI 2 B+

Provider
1 and 1

Davis Vue

Meteohub

Raspberry PI 2 B+

1 and 1